createdAt,value
2023-04-16T00:00:03.903Z,97879.91
2023-04-16T00:05:15.360Z,97890.72
2023-04-16T00:10:19.272Z,97894.78
2023-04-16T00:15:24.722Z,97892.31
2023-04-16T00:20:28.876Z,97894.56
2023-04-16T00:25:32.707Z,97891.53
2023-04-16T00:30:38.684Z,97896.38
2023-04-16T00:35:42.945Z,97893.75
2023-04-16T00:40:46.774Z,97892.44
2023-04-16T00:45:54.048Z,97892.25
2023-04-16T00:50:58.430Z,97895.84
2023-04-16T00:56:03.452Z,97899.47
2023-04-16T01:01:09.152Z,97903.91
2023-04-16T01:06:13.173Z,97901.56
2023-04-16T01:11:17.655Z,97909.84
2023-04-16T01:16:23.109Z,97927.38
2023-04-16T01:21:28.641Z,97930.00
2023-04-16T01:26:33.104Z,97931.34
2023-04-16T01:31:37.185Z,97924.25
2023-04-16T01:36:57.810Z,97934.31
2023-04-16T01:42:02.399Z,97940.16
2023-04-16T01:47:06.673Z,97930.63
2023-04-16T01:52:11.941Z,97943.78
2023-04-16T01:57:15.933Z,97943.94
2023-04-16T02:02:21.015Z,97935.34
2023-04-16T02:07:27.427Z,97934.69
2023-04-16T02:12:31.680Z,97933.75
2023-04-16T02:17:36.238Z,97936.50
2023-04-16T02:22:48.816Z,97944.41
2023-04-16T02:27:56.116Z,97953.78
2023-04-16T02:33:11.635Z,97959.63
2023-04-16T02:38:19.384Z,97955.41
2023-04-16T02:43:23.470Z,97963.22
2023-04-16T02:48:27.786Z,97972.16
2023-04-16T02:53:33.403Z,97970.72
2023-04-16T02:58:37.718Z,97968.78
2023-04-16T03:03:42.030Z,97977.22
2023-04-16T03:08:47.462Z,97984.22
2023-04-16T03:13:51.573Z,97986.66
2023-04-16T03:18:55.739Z,97990.38
2023-04-16T03:24:01.163Z,98002.56
2023-04-16T03:29:05.040Z,98005.47
2023-04-16T03:34:10.973Z,98006.28
2023-04-16T03:39:18.237Z,98001.75
2023-04-16T03:44:22.157Z,98010.69
2023-04-16T03:49:26.289Z,98016.84
2023-04-16T03:54:31.792Z,98017.66
2023-04-16T03:59:47.648Z,98028.88
2023-04-16T04:04:53.728Z,98030.66
2023-04-16T04:09:59.074Z,98040.56
2023-04-16T04:15:03.216Z,98041.03
2023-04-16T04:20:08.507Z,98053.22
2023-04-16T04:25:15.782Z,98052.09
2023-04-16T04:30:19.909Z,98062.31
2023-04-16T04:35:24.410Z,98064.41
2023-04-16T04:40:30.067Z,98079.50
2023-04-16T04:45:34.411Z,98083.88
2023-04-16T04:50:38.524Z,98085.69
2023-04-16T04:55:44.218Z,98076.91
2023-04-16T05:00:48.810Z,98092.00
2023-04-16T05:05:53.389Z,98093.50
2023-04-16T05:10:58.776Z,98099.97
2023-04-16T05:16:02.806Z,98112.69
2023-04-16T05:21:07.559Z,98110.72
2023-04-16T05:26:13.226Z,98106.81
2023-04-16T05:31:17.332Z,98119.81
2023-04-16T05:36:22.088Z,98131.22
2023-04-16T05:41:27.291Z,98129.72
2023-04-16T05:46:31.404Z,98132.97
2023-04-16T05:51:35.650Z,98147.25
2023-04-16T05:56:41.104Z,98152.78
2023-04-16T06:01:44.939Z,98153.78
2023-04-16T06:06:48.781Z,98165.00
2023-04-16T06:11:53.997Z,98174.75
2023-04-16T06:16:58.245Z,98178.97
2023-04-16T06:22:02.505Z,98193.63
2023-04-16T06:27:08.127Z,98197.66
2023-04-16T06:32:12.485Z,98197.06
2023-04-16T06:37:17.501Z,98195.25
2023-04-16T06:42:23.107Z,98198.84
2023-04-16T06:47:27.319Z,98202.56
2023-04-16T06:52:31.278Z,98204.19
2023-04-16T06:57:37.676Z,98216.38
2023-04-16T07:02:42.130Z,98225.94
2023-04-16T07:07:46.147Z,98232.47
2023-04-16T07:12:51.631Z,98234.91
2023-04-16T07:17:55.753Z,98247.94
2023-04-16T07:23:00.424Z,98253.78
2023-04-16T07:28:05.928Z,98251.53
2023-04-16T07:33:10.500Z,98259.81
2023-04-16T07:38:14.769Z,98270.88
2023-04-16T07:43:20.228Z,98259.91
2023-04-16T07:48:24.225Z,98263.03
2023-04-16T07:53:28.522Z,98258.81
2023-04-16T07:58:33.729Z,98263.69
2023-04-16T08:03:37.990Z,98268.75
2023-04-16T08:08:42.417Z,98273.28
2023-04-16T08:13:47.784Z,98266.59
2023-04-16T08:18:51.653Z,98273.56
2023-04-16T08:23:56.042Z,98275.41
2023-04-16T08:29:01.770Z,98274.25
2023-04-16T08:34:06.344Z,98276.44
2023-04-16T08:39:10.933Z,98287.81
2023-04-16T08:44:21.982Z,98294.00
2023-04-16T08:49:26.923Z,98298.22
2023-04-16T08:54:40.153Z,98317.72
2023-04-16T08:59:47.037Z,98324.47
2023-04-16T09:04:51.818Z,98336.78
2023-04-16T09:09:55.963Z,98328.88
2023-04-16T09:15:03.110Z,98331.22
2023-04-16T09:20:11.078Z,98332.06
2023-04-16T09:25:16.582Z,98336.91
2023-04-16T09:30:23.418Z,98340.41
2023-04-16T09:35:27.809Z,98345.78
2023-04-16T09:40:32.321Z,98347.00
2023-04-16T09:45:51.794Z,98357.16
2023-04-16T09:50:56.286Z,98355.56
2023-04-16T09:56:01.553Z,98362.22
2023-04-16T10:01:11.707Z,98356.81
2023-04-16T10:06:18.207Z,98359.50
2023-04-16T10:11:22.748Z,98363.69
2023-04-16T10:16:28.089Z,98364.22
2023-04-16T10:21:34.311Z,98364.56
2023-04-16T10:26:38.928Z,98361.66
2023-04-16T10:31:44.440Z,98371.38
2023-04-16T10:36:51.206Z,98365.50
2023-04-16T10:42:09.233Z,98366.69
2023-04-16T10:47:15.399Z,98352.81
2023-04-16T10:52:19.665Z,98346.09
2023-04-16T10:57:23.611Z,98349.06
2023-04-16T11:02:31.007Z,98360.22
2023-04-16T11:07:36.037Z,98361.31
2023-04-16T11:12:42.265Z,98364.78
2023-04-16T11:17:48.889Z,98364.72
2023-04-16T11:22:53.705Z,98368.72
2023-04-16T11:27:59.116Z,98378.44
2023-04-16T11:33:05.087Z,98366.91
2023-04-16T11:38:09.229Z,98371.63
2023-04-16T11:43:15.900Z,98368.22
2023-04-16T11:48:22.033Z,98376.63
2023-04-16T11:53:26.369Z,98369.09
2023-04-16T11:58:30.238Z,98369.41
2023-04-16T12:03:46.529Z,98368.25
2023-04-16T12:08:50.782Z,98384.84
2023-04-16T12:14:10.673Z,98370.16
2023-04-16T12:19:16.098Z,98385.69
2023-04-16T12:24:22.688Z,98382.06
2023-04-16T12:29:28.081Z,98378.41
2023-04-16T12:34:49.220Z,98375.22
2023-04-16T12:39:54.419Z,98369.53
2023-04-16T12:44:58.606Z,98366.72
2023-04-16T12:50:04.052Z,98368.34
2023-04-16T12:55:08.600Z,98367.41
2023-04-16T13:00:14.890Z,98354.00
2023-04-16T13:05:20.633Z,98357.66
2023-04-16T13:10:24.584Z,98366.13
2023-04-16T13:15:28.930Z,98362.06
2023-04-16T13:20:34.616Z,98363.97
2023-04-16T13:25:38.609Z,98359.66
2023-04-16T13:30:42.800Z,98365.88
2023-04-16T13:35:48.600Z,98360.78
2023-04-16T13:40:52.674Z,98366.72
2023-04-16T13:45:57.524Z,98367.22
2023-04-16T13:51:03.601Z,98365.06
2023-04-16T13:56:07.955Z,98351.00
2023-04-16T14:01:12.345Z,98362.31
2023-04-16T14:06:18.362Z,98365.22
2023-04-16T14:11:22.626Z,98355.88
2023-04-16T14:16:27.362Z,98354.75
2023-04-16T14:21:32.914Z,98364.13
2023-04-16T14:26:37.041Z,98364.59
2023-04-16T14:31:40.979Z,98364.13
2023-04-16T14:36:46.300Z,98350.41
2023-04-16T14:41:50.784Z,98358.38
2023-04-16T14:46:55.415Z,98369.50
2023-04-16T14:52:02.086Z,98372.19
2023-04-16T14:57:06.182Z,98378.16
2023-04-16T15:02:10.464Z,98378.38
2023-04-16T15:07:15.876Z,98373.69
2023-04-16T15:12:19.879Z,98373.53
2023-04-16T15:17:24.129Z,98375.28
2023-04-16T15:22:29.352Z,98378.16
2023-04-16T15:27:33.397Z,98383.25
2023-04-16T15:32:37.563Z,98375.50
2023-04-16T15:37:42.973Z,98374.59
2023-04-16T15:42:47.430Z,98376.47
2023-04-16T15:47:52.227Z,98373.25
2023-04-16T15:52:57.705Z,98369.22
2023-04-16T15:58:01.782Z,98373.63
2023-04-16T16:03:06.368Z,98375.06
2023-04-16T16:08:12.256Z,98370.00
2023-04-16T16:13:18.388Z,98378.84
2023-04-16T16:18:23.154Z,98390.19
2023-04-16T16:23:28.613Z,98381.59
2023-04-16T16:28:32.759Z,98384.38
2023-04-16T16:33:37.917Z,98384.53
2023-04-16T16:38:47.300Z,98384.31
2023-04-16T16:43:51.413Z,98390.03
2023-04-16T16:48:55.517Z,98395.34
2023-04-16T16:54:01.162Z,98406.00
2023-04-16T16:59:05.106Z,98403.41
2023-04-16T17:04:09.309Z,98416.81
2023-04-16T17:09:14.711Z,98413.88
2023-04-16T17:14:19.150Z,98421.63
2023-04-16T17:19:23.249Z,98426.03
2023-04-16T17:24:28.685Z,98426.59
2023-04-16T17:29:32.841Z,98432.53
2023-04-16T17:34:36.911Z,98435.97
2023-04-16T17:39:42.670Z,98437.69
2023-04-16T17:44:46.666Z,98442.66
2023-04-16T17:49:53.839Z,98457.72
2023-04-16T17:55:01.847Z,98456.13
2023-04-16T18:00:11.029Z,98460.38
2023-04-16T18:05:19.004Z,98470.88
2023-04-16T18:10:24.719Z,98475.75
2023-04-16T18:15:29.276Z,98478.63
2023-04-16T18:20:33.818Z,98482.00
2023-04-16T18:25:40.304Z,98492.31
2023-04-16T18:30:44.649Z,98497.25
2023-04-16T18:35:49.820Z,98500.91
2023-04-16T18:40:55.260Z,98510.91
2023-04-16T18:45:59.700Z,98514.53
2023-04-16T18:51:04.457Z,98516.16
2023-04-16T18:56:10.721Z,98518.00
2023-04-16T19:01:14.880Z,98523.66
2023-04-16T19:06:18.816Z,98531.81
2023-04-16T19:11:24.201Z,98529.22
2023-04-16T19:16:28.595Z,98527.28
2023-04-16T19:21:32.707Z,98529.72
2023-04-16T19:26:38.180Z,98527.72
2023-04-16T19:31:42.514Z,98527.88
2023-04-16T19:36:46.583Z,98522.97
2023-04-16T19:41:52.129Z,98525.56
2023-04-16T19:46:56.383Z,98527.84
2023-04-16T19:52:01.536Z,98528.50
2023-04-16T19:57:07.081Z,98530.16
2023-04-16T20:02:11.604Z,98535.88
2023-04-16T20:07:15.599Z,98533.63
2023-04-16T20:12:21.079Z,98542.91
2023-04-16T20:17:25.140Z,98529.53
2023-04-16T20:22:28.950Z,98534.28
2023-04-16T20:27:34.747Z,98534.75
2023-04-16T20:32:38.579Z,98534.44
2023-04-16T20:37:43.133Z,98534.75
2023-04-16T20:42:50.902Z,98531.16
2023-04-16T20:47:55.166Z,98533.13
2023-04-16T20:52:59.395Z,98536.19
2023-04-16T20:58:04.674Z,98532.72
2023-04-16T21:03:08.896Z,98540.50
2023-04-16T21:08:12.880Z,98538.19
2023-04-16T21:13:18.673Z,98543.84
2023-04-16T21:18:22.891Z,98539.84
2023-04-16T21:23:26.991Z,98537.94
2023-04-16T21:28:32.641Z,98534.63
2023-04-16T21:33:36.720Z,98534.03
2023-04-16T21:38:40.967Z,98534.28
2023-04-16T21:43:46.551Z,98526.41
2023-04-16T21:48:50.904Z,98523.84
2023-04-16T21:53:55.773Z,98527.88
2023-04-16T21:59:01.044Z,98533.44
2023-04-16T22:04:05.399Z,98534.50
2023-04-16T22:09:09.685Z,98528.41
2023-04-16T22:14:17.673Z,98529.00
2023-04-16T22:19:21.763Z,98526.75
2023-04-16T22:24:25.724Z,98523.22
2023-04-16T22:29:31.144Z,98523.50
2023-04-16T22:34:35.360Z,98530.72
2023-04-16T22:39:39.191Z,98527.91
2023-04-16T22:44:44.545Z,98518.84
2023-04-16T22:49:48.574Z,98524.34
2023-04-16T22:54:52.975Z,98526.78
2023-04-16T22:59:58.588Z,98529.38
2023-04-16T23:05:02.677Z,98531.00
2023-04-16T23:10:08.804Z,98535.34
2023-04-16T23:15:16.407Z,98537.06
2023-04-16T23:20:20.489Z,98531.38
2023-04-16T23:25:25.506Z,98529.22
2023-04-16T23:30:30.905Z,98533.22
2023-04-16T23:35:35.020Z,98529.00
2023-04-16T23:40:39.311Z,98523.00
2023-04-16T23:45:45.077Z,98520.28
2023-04-16T23:50:49.188Z,98522.88
2023-04-16T23:55:53.500Z,98513.47
